createdAt,value
2019-04-30T00:00:34.787Z,7.00
2019-04-30T00:03:11.531Z,7.57
2019-04-30T00:05:40.233Z,11.33
2019-04-30T00:08:09.419Z,9.83
2019-04-30T00:10:41.045Z,6.00
2019-04-30T00:13:10.482Z,6.70
2019-04-30T00:15:40.353Z,6.97
2019-04-30T00:18:09.746Z,5.90
2019-04-30T00:20:38.952Z,10.90
2019-04-30T00:23:08.152Z,6.07
2019-04-30T00:25:37.337Z,7.30
2019-04-30T00:28:08.758Z,6.73
2019-04-30T00:30:39.303Z,5.90
2019-04-30T00:33:08.202Z,7.20
2019-04-30T00:35:37.401Z,9.77
2019-04-30T00:38:06.511Z,5.67
2019-04-30T00:40:35.691Z,7.80
2019-04-30T00:43:08.882Z,5.50
2019-04-30T00:45:39.896Z,5.60
2019-04-30T00:48:06.943Z,6.27
2019-04-30T00:50:37.322Z,5.97
2019-04-30T00:55:48.962Z,6.23
2019-04-30T00:58:24.826Z,6.23
2019-04-30T01:00:59.791Z,8.13
2019-04-30T01:03:30.244Z,5.33
2019-04-30T01:05:59.323Z,4.93
2019-04-30T01:08:28.732Z,4.73
2019-04-30T01:10:59.760Z,7.13
2019-04-30T01:13:29.129Z,8.37
2019-04-30T01:15:58.845Z,4.33
2019-04-30T01:18:31.927Z,5.77
2019-04-30T01:21:02.953Z,7.03
2019-04-30T01:23:29.743Z,7.37
2019-04-30T01:25:58.928Z,8.50
2019-04-30T01:28:28.419Z,6.17
2019-04-30T01:31:01.942Z,4.63
2019-04-30T01:33:34.521Z,9.10
2019-04-30T01:36:04.177Z,5.00
2019-04-30T01:38:32.257Z,5.80
2019-04-30T01:41:01.355Z,7.80
2019-04-30T01:43:33.715Z,5.67
2019-04-30T01:46:08.448Z,6.07
2019-04-30T01:48:31.963Z,5.63
2019-04-30T01:51:01.235Z,5.07
2019-04-30T01:53:30.388Z,4.70
2019-04-30T01:56:33.849Z,4.90
2019-04-30T01:59:09.205Z,5.13
2019-04-30T02:01:40.971Z,4.37
2019-04-30T02:04:10.138Z,3.50
2019-04-30T02:06:39.342Z,4.30
2019-04-30T02:09:09.090Z,5.90
2019-04-30T02:11:38.820Z,4.00
2019-04-30T02:14:09.051Z,5.53
2019-04-30T02:16:39.568Z,4.73
2019-04-30T02:19:09.176Z,4.97
2019-04-30T02:21:38.631Z,4.73
2019-04-30T02:24:08.949Z,4.60
2019-04-30T02:26:38.660Z,6.47
2019-04-30T02:29:09.168Z,3.63
2019-04-30T02:31:40.741Z,4.10
2019-04-30T02:34:22.377Z,3.67
2019-04-30T02:37:13.849Z,3.70
2019-04-30T02:39:42.931Z,5.87
2019-04-30T02:42:13.100Z,5.63
2019-04-30T02:44:43.045Z,6.83
2019-04-30T02:47:12.529Z,3.93
2019-04-30T02:49:41.956Z,4.13
2019-04-30T02:52:11.120Z,4.27
2019-04-30T02:54:40.271Z,5.87
2019-04-30T02:57:13.472Z,3.80
2019-04-30T03:00:09.939Z,4.27
2019-04-30T03:02:39.348Z,4.13
2019-04-30T03:05:10.218Z,4.87
2019-04-30T03:07:40.668Z,4.80
2019-04-30T03:10:10.437Z,4.00
2019-04-30T03:12:40.536Z,5.03
2019-04-30T03:15:10.268Z,3.77
2019-04-30T03:18:00.638Z,5.93
2019-04-30T03:20:49.703Z,4.13
2019-04-30T03:23:19.541Z,5.13
2019-04-30T03:25:50.197Z,4.40
2019-04-30T03:28:20.372Z,3.37
2019-04-30T03:30:52.026Z,5.13
2019-04-30T03:33:22.888Z,3.80
2019-04-30T03:35:54.013Z,4.00
2019-04-30T03:38:22.121Z,5.67
2019-04-30T03:40:51.186Z,3.07
2019-04-30T03:43:20.459Z,4.80
2019-04-30T03:45:50.036Z,4.57
2019-04-30T03:48:19.988Z,5.13
2019-04-30T03:50:56.342Z,12.00
2019-04-30T03:53:20.422Z,4.50
2019-04-30T03:55:50.551Z,4.23
2019-04-30T03:58:21.290Z,6.90
2019-04-30T04:01:01.962Z,3.37
2019-04-30T04:03:32.668Z,5.30
2019-04-30T04:06:21.661Z,2.80
2019-04-30T04:08:55.194Z,3.33
2019-04-30T04:11:29.730Z,2.90
2019-04-30T04:13:59.778Z,3.20
2019-04-30T04:16:31.924Z,3.03
2019-04-30T04:19:02.773Z,3.70
2019-04-30T04:21:30.466Z,5.17
2019-04-30T04:24:00.215Z,3.30
2019-04-30T04:26:29.935Z,2.40
2019-04-30T04:28:59.644Z,5.67
2019-04-30T04:31:29.852Z,3.50
2019-04-30T04:34:00.018Z,3.97
2019-04-30T04:36:30.275Z,3.17
2019-04-30T04:39:00.294Z,2.60
2019-04-30T04:41:29.744Z,2.20
2019-04-30T04:44:00.198Z,1.87
2019-04-30T04:46:30.806Z,1.70
2019-04-30T04:49:00.133Z,4.90
2019-04-30T04:51:38.001Z,3.57
2019-04-30T04:54:03.153Z,2.83
2019-04-30T04:56:30.740Z,7.00
2019-04-30T04:59:00.304Z,6.93
2019-04-30T05:01:29.701Z,4.67
2019-04-30T05:03:59.111Z,3.93
2019-04-30T05:06:29.793Z,2.30
2019-04-30T05:09:01.624Z,3.13
2019-04-30T05:11:31.697Z,3.03
2019-04-30T05:14:01.411Z,6.33
2019-04-30T05:16:30.627Z,9.43
2019-04-30T05:19:01.170Z,2.57
2019-04-30T05:21:41.429Z,4.17
2019-04-30T05:24:01.255Z,3.43
2019-04-30T05:26:30.398Z,7.77
2019-04-30T05:28:59.516Z,3.63
2019-04-30T05:31:29.050Z,3.00
2019-04-30T05:33:58.970Z,3.57
2019-04-30T05:36:29.194Z,7.60
2019-04-30T05:39:00.462Z,3.50
2019-04-30T05:41:29.769Z,2.40
2019-04-30T05:43:59.243Z,4.33
2019-04-30T05:46:29.829Z,7.77
2019-04-30T05:48:59.501Z,2.87
2019-04-30T05:51:29.007Z,5.13
2019-04-30T05:53:59.250Z,6.67
2019-04-30T05:56:30.369Z,4.30
2019-04-30T05:58:59.567Z,2.67
2019-04-30T06:01:29.525Z,3.30
2019-04-30T06:03:59.462Z,3.53
2019-04-30T06:06:29.102Z,5.17
2019-04-30T06:09:14.477Z,4.37
2019-04-30T06:12:15.393Z,2.47
2019-04-30T06:14:51.902Z,2.23
2019-04-30T06:17:21.739Z,3.30
2019-04-30T06:19:51.430Z,2.90
2019-04-30T06:22:20.915Z,9.17
2019-04-30T06:24:50.114Z,4.83
2019-04-30T06:27:19.479Z,6.00
2019-04-30T06:29:49.109Z,3.63
2019-04-30T06:32:18.849Z,6.40
2019-04-30T06:34:49.831Z,6.13
2019-04-30T06:37:19.465Z,4.80
2019-04-30T06:39:49.981Z,2.13
2019-04-30T06:42:19.662Z,3.13
2019-04-30T06:44:49.455Z,9.80
2019-04-30T06:47:26.601Z,4.13
2019-04-30T06:49:49.813Z,13.43
2019-04-30T06:52:23.272Z,10.07
2019-04-30T06:54:50.005Z,7.30
2019-04-30T06:57:19.940Z,5.50
2019-04-30T06:59:51.268Z,8.70
2019-04-30T07:02:20.030Z,8.53
2019-04-30T07:04:49.299Z,10.73
2019-04-30T07:07:23.105Z,6.17
2019-04-30T07:10:00.474Z,9.87
2019-04-30T07:12:55.399Z,9.87
2019-04-30T07:15:24.512Z,8.03
2019-04-30T07:17:53.632Z,9.60
2019-04-30T07:20:22.741Z,7.17
2019-04-30T07:22:58.785Z,13.43
2019-04-30T07:25:22.728Z,9.97
2019-04-30T07:27:51.847Z,12.87
2019-04-30T07:30:21.004Z,16.30
2019-04-30T07:32:50.156Z,8.93
2019-04-30T07:35:19.646Z,8.40
2019-04-30T07:40:19.814Z,9.97
2019-04-30T07:42:49.410Z,8.03
2019-04-30T07:45:19.624Z,9.90
2019-04-30T07:48:09.277Z,8.70
2019-04-30T07:50:41.178Z,7.60
2019-04-30T07:53:11.122Z,7.67
2019-04-30T07:55:40.334Z,12.97
2019-04-30T07:58:09.492Z,9.13
2019-04-30T08:00:40.239Z,13.27
2019-04-30T08:03:30.642Z,10.07
2019-04-30T08:06:00.969Z,11.40
2019-04-30T08:08:30.567Z,10.50
2019-04-30T08:09:38.366Z,17.97
2019-04-30T08:11:00.078Z,15.00
2019-04-30T08:13:32.465Z,13.77
2019-04-30T08:16:00.978Z,9.57
2019-04-30T08:18:30.157Z,12.00
2019-04-30T08:21:01.042Z,10.13
2019-04-30T08:23:34.997Z,10.37
2019-04-30T08:26:01.064Z,15.80
2019-04-30T08:28:30.495Z,11.50
2019-04-30T08:30:59.787Z,15.40
2019-04-30T08:33:29.284Z,12.47
2019-04-30T08:36:00.783Z,13.53
2019-04-30T08:38:30.056Z,11.60
2019-04-30T08:41:00.874Z,20.33
2019-04-30T08:43:30.308Z,10.60
2019-04-30T08:45:59.920Z,13.10
2019-04-30T08:48:43.772Z,13.17
2019-04-30T08:50:59.803Z,13.80
2019-04-30T08:53:32.839Z,14.73
2019-04-30T08:55:59.666Z,13.23
2019-04-30T08:58:29.248Z,18.63
2019-04-30T09:00:59.130Z,17.73
2019-04-30T09:03:29.614Z,19.03
2019-04-30T09:06:06.277Z,11.97
2019-04-30T09:08:36.505Z,10.17
2019-04-30T09:11:05.529Z,12.17
2019-04-30T09:13:34.602Z,14.13
2019-04-30T09:16:03.785Z,21.57
2019-04-30T09:18:32.807Z,9.83
2019-04-30T09:21:05.999Z,15.40
2019-04-30T09:23:44.128Z,12.97
2019-04-30T09:26:03.499Z,12.57
2019-04-30T09:28:32.738Z,8.43
2019-04-30T09:31:01.853Z,12.77
2019-04-30T09:33:30.926Z,17.03
2019-04-30T09:36:00.025Z,24.50
2019-04-30T09:38:29.193Z,14.97
2019-04-30T09:40:59.379Z,10.30
2019-04-30T09:43:28.841Z,17.33
2019-04-30T09:45:59.306Z,10.50
2019-04-30T09:48:30.501Z,8.50
2019-04-30T09:51:00.819Z,12.17
2019-04-30T09:53:30.964Z,11.73
2019-04-30T09:56:00.422Z,9.17
2019-04-30T09:58:30.041Z,8.17
2019-04-30T10:00:59.482Z,9.87
2019-04-30T10:03:30.723Z,8.27
2019-04-30T10:05:59.484Z,7.90
2019-04-30T10:08:30.637Z,8.50
2019-04-30T10:11:14.339Z,9.00
2019-04-30T10:13:43.393Z,6.30
2019-04-30T10:16:25.071Z,9.20
2019-04-30T10:18:54.254Z,13.97
2019-04-30T10:21:23.317Z,6.67
2019-04-30T10:23:52.499Z,10.67
2019-04-30T10:26:21.641Z,5.07
2019-04-30T10:28:50.816Z,10.47
2019-04-30T10:31:20.922Z,7.00
2019-04-30T10:33:50.102Z,11.33
2019-04-30T10:36:19.471Z,6.43
2019-04-30T10:38:49.405Z,13.23
2019-04-30T10:41:18.899Z,7.93
2019-04-30T10:43:49.244Z,14.17
2019-04-30T10:46:18.714Z,6.10
2019-04-30T10:48:47.823Z,6.73
2019-04-30T10:51:18.819Z,7.87
2019-04-30T10:53:48.897Z,4.80
2019-04-30T10:56:19.324Z,6.37
2019-04-30T10:58:48.717Z,14.13
2019-04-30T11:01:19.231Z,11.10
2019-04-30T11:03:48.526Z,6.20
2019-04-30T11:06:19.186Z,5.20
2019-04-30T11:08:48.359Z,5.57
2019-04-30T11:11:17.539Z,4.67
2019-04-30T11:13:47.017Z,5.73
2019-04-30T11:16:16.133Z,8.37
2019-04-30T11:18:45.431Z,7.43
2019-04-30T11:21:14.933Z,4.57
2019-04-30T11:23:44.598Z,3.50
2019-04-30T11:26:14.570Z,5.67
2019-04-30T11:28:44.398Z,5.53
2019-04-30T11:31:33.047Z,4.47
2019-04-30T11:34:03.146Z,5.57
2019-04-30T11:36:32.110Z,16.50
2019-04-30T11:39:01.244Z,6.67
2019-04-30T11:41:33.174Z,7.63
2019-04-30T11:44:01.321Z,6.83
2019-04-30T11:47:09.736Z,7.57
2019-04-30T11:49:38.976Z,4.93
2019-04-30T11:52:08.079Z,3.60
2019-04-30T11:54:48.753Z,7.37
2019-04-30T11:57:08.946Z,7.03
2019-04-30T11:59:39.556Z,5.70
2019-04-30T12:02:24.971Z,5.50
2019-04-30T12:04:53.985Z,12.40
2019-04-30T12:07:32.516Z,10.73
2019-04-30T12:10:23.372Z,6.60
2019-04-30T12:12:52.519Z,5.63
2019-04-30T12:15:21.663Z,10.17
2019-04-30T12:17:50.805Z,8.60
2019-04-30T12:20:19.931Z,8.87
2019-04-30T12:22:49.322Z,6.43
2019-04-30T12:25:18.915Z,8.70
2019-04-30T12:27:48.856Z,8.63
2019-04-30T12:30:20.522Z,7.13
2019-04-30T12:32:49.396Z,4.70
2019-04-30T12:35:18.811Z,7.70
2019-04-30T12:37:50.858Z,8.73
2019-04-30T12:40:28.721Z,9.57
2019-04-30T12:42:50.116Z,6.67
2019-04-30T12:45:19.493Z,4.83
2019-04-30T12:47:53.263Z,10.83
2019-04-30T12:50:29.202Z,5.97
2019-04-30T12:53:02.258Z,5.73
2019-04-30T12:55:56.473Z,8.67
2019-04-30T12:58:25.618Z,15.67
2019-04-30T13:00:54.809Z,5.93
2019-04-30T13:03:23.974Z,7.03
2019-04-30T13:05:53.621Z,5.43
2019-04-30T13:08:23.554Z,4.97
2019-04-30T13:10:53.576Z,5.93
2019-04-30T13:13:23.677Z,8.77
2019-04-30T13:15:53.217Z,6.13
2019-04-30T13:18:22.433Z,7.27
2019-04-30T13:20:51.595Z,3.77
2019-04-30T13:23:20.752Z,6.77
2019-04-30T13:25:51.713Z,5.43
2019-04-30T13:28:22.277Z,4.50
2019-04-30T13:30:51.417Z,4.13
2019-04-30T13:33:50.906Z,8.00
2019-04-30T13:36:19.861Z,3.40
2019-04-30T13:38:56.687Z,9.47
2019-04-30T13:41:36.857Z,4.43
2019-04-30T13:44:09.752Z,6.57
2019-04-30T13:46:39.565Z,5.03
2019-04-30T13:49:08.967Z,9.17
2019-04-30T13:51:38.061Z,6.83
2019-04-30T13:54:07.227Z,6.47
2019-04-30T13:56:36.424Z,12.23
2019-04-30T13:59:05.637Z,28.43
2019-04-30T14:01:34.615Z,22.73
2019-04-30T14:04:09.991Z,31.77
2019-04-30T14:06:44.877Z,33.23
2019-04-30T14:09:21.041Z,33.30
2019-04-30T14:11:50.165Z,29.67
2019-04-30T14:14:19.993Z,27.10
2019-04-30T14:16:49.401Z,32.53
2019-04-30T14:19:19.545Z,26.10
2019-04-30T14:21:49.406Z,20.20
2019-04-30T14:24:19.344Z,29.47
2019-04-30T14:26:49.171Z,26.33
2019-04-30T14:29:18.507Z,25.67
2019-04-30T14:31:48.793Z,22.47
2019-04-30T14:34:18.623Z,25.73
2019-04-30T14:36:49.266Z,19.60
2019-04-30T14:39:20.279Z,20.70
2019-04-30T14:41:52.078Z,19.97
2019-04-30T14:44:23.994Z,15.67
2019-04-30T14:47:06.533Z,18.57
2019-04-30T14:50:13.317Z,15.53
2019-04-30T14:52:51.960Z,22.30
2019-04-30T14:55:32.055Z,26.63
2019-04-30T14:58:20.408Z,12.37
2019-04-30T15:00:59.953Z,12.57
2019-04-30T15:03:29.656Z,24.80
2019-04-30T15:05:59.010Z,12.17
2019-04-30T15:08:29.312Z,9.50
2019-04-30T15:10:58.798Z,18.13
2019-04-30T15:13:29.545Z,12.20
2019-04-30T15:15:58.885Z,12.97
2019-04-30T15:18:29.026Z,17.83
2019-04-30T15:20:59.457Z,9.83
2019-04-30T15:23:57.977Z,18.83
2019-04-30T15:26:22.907Z,12.80
2019-04-30T15:28:49.463Z,21.10
2019-04-30T15:31:18.682Z,10.90
2019-04-30T15:34:11.161Z,17.03
2019-04-30T15:36:40.418Z,7.03
2019-04-30T15:39:43.863Z,20.57
2019-04-30T15:42:13.789Z,19.57
2019-04-30T15:44:45.708Z,21.17
2019-04-30T15:47:13.774Z,20.10
2019-04-30T15:49:42.908Z,21.13
2019-04-30T15:52:12.043Z,14.20
2019-04-30T15:54:41.201Z,27.93
2019-04-30T15:57:10.333Z,26.03
2019-04-30T15:59:43.216Z,25.93
2019-04-30T16:02:30.059Z,20.93
2019-04-30T16:05:33.277Z,19.13
2019-04-30T16:08:30.639Z,17.00
2019-04-30T16:11:24.876Z,23.47
2019-04-30T16:14:19.025Z,23.60
2019-04-30T16:17:23.439Z,14.30
2019-04-30T16:19:52.526Z,19.47
2019-04-30T16:22:21.708Z,14.27
2019-04-30T16:24:50.904Z,11.30
2019-04-30T16:27:20.133Z,15.40
2019-04-30T16:29:49.800Z,18.03
2019-04-30T16:32:19.577Z,19.10
2019-04-30T16:34:49.806Z,7.70
2019-04-30T16:37:20.181Z,12.07
2019-04-30T16:39:49.998Z,13.27
2019-04-30T16:42:19.159Z,7.93
2019-04-30T16:44:48.485Z,15.87
2019-04-30T16:47:19.729Z,15.20
2019-04-30T16:49:49.330Z,23.10
2019-04-30T16:52:19.052Z,16.33
2019-04-30T16:54:49.792Z,12.93
2019-04-30T16:57:19.108Z,13.77
2019-04-30T16:59:49.991Z,15.03
2019-04-30T17:02:20.740Z,18.17
2019-04-30T17:04:54.862Z,18.23
2019-04-30T17:07:44.491Z,8.13
2019-04-30T17:10:20.393Z,15.87
2019-04-30T17:13:09.185Z,13.73
2019-04-30T17:15:38.796Z,16.00
2019-04-30T17:18:09.971Z,17.10
2019-04-30T17:20:38.694Z,16.83
2019-04-30T17:23:09.456Z,6.67
2019-04-30T17:25:39.109Z,18.23
2019-04-30T17:28:09.388Z,22.20
2019-04-30T17:30:39.240Z,69.17
2019-04-30T17:33:09.506Z,174.83
2019-04-30T17:35:39.942Z,96.20
2019-04-30T17:38:09.054Z,77.00
2019-04-30T17:40:38.970Z,63.37
2019-04-30T17:43:08.188Z,40.37
2019-04-30T17:45:39.132Z,32.83
2019-04-30T17:48:08.155Z,17.70
2019-04-30T17:50:37.318Z,18.03
2019-04-30T17:53:06.480Z,9.17
2019-04-30T17:55:36.127Z,10.90
2019-04-30T17:58:05.363Z,10.50
2019-04-30T18:00:36.214Z,21.20
2019-04-30T18:03:05.997Z,24.93
2019-04-30T18:05:36.336Z,23.33
2019-04-30T18:08:05.979Z,27.20
2019-04-30T18:10:36.119Z,32.40
2019-04-30T18:13:05.421Z,35.20
2019-04-30T18:15:34.596Z,34.40
2019-04-30T18:18:12.930Z,30.90
2019-04-30T18:20:49.138Z,39.67
2019-04-30T18:23:37.486Z,36.20
2019-04-30T18:26:12.392Z,29.23
2019-04-30T18:28:41.488Z,33.77
2019-04-30T18:31:11.158Z,30.57
2019-04-30T18:33:40.518Z,36.13
2019-04-30T18:36:11.953Z,36.00
2019-04-30T18:38:41.117Z,39.20
2019-04-30T18:41:10.321Z,39.93
2019-04-30T18:43:40.552Z,27.60
2019-04-30T18:46:10.836Z,23.47
2019-04-30T18:48:40.072Z,30.03
2019-04-30T18:51:23.716Z,14.47
2019-04-30T18:53:39.975Z,27.00
2019-04-30T18:56:14.450Z,26.20
2019-04-30T18:58:42.940Z,16.17
2019-04-30T19:01:11.558Z,22.10
2019-04-30T19:03:41.038Z,25.07
2019-04-30T19:06:22.973Z,19.23
2019-04-30T19:08:52.757Z,17.00
2019-04-30T19:11:29.919Z,23.80
2019-04-30T19:14:09.600Z,25.67
2019-04-30T19:17:05.191Z,16.40
2019-04-30T19:19:56.382Z,18.90
2019-04-30T19:22:25.654Z,17.03
2019-04-30T19:24:58.572Z,16.13
2019-04-30T19:27:25.693Z,16.30
2019-04-30T19:29:54.756Z,22.50
2019-04-30T19:32:24.187Z,31.13
2019-04-30T19:34:53.335Z,23.63
2019-04-30T19:37:22.497Z,19.23
2019-04-30T19:39:51.932Z,27.63
2019-04-30T19:42:21.698Z,23.97
2019-04-30T19:45:00.020Z,24.43
2019-04-30T19:47:22.379Z,20.67
2019-04-30T19:49:51.774Z,20.63
2019-04-30T19:52:20.991Z,17.83
2019-04-30T19:54:50.413Z,20.73
2019-04-30T19:57:19.635Z,27.63
2019-04-30T19:59:49.255Z,25.47
2019-04-30T20:02:19.095Z,27.87
2019-04-30T20:04:49.609Z,28.17
2019-04-30T20:07:19.516Z,22.73
2019-04-30T20:10:00.283Z,25.37
2019-04-30T20:12:19.837Z,19.93
2019-04-30T20:14:49.595Z,27.53
2019-04-30T20:17:19.447Z,23.80
2019-04-30T20:19:49.009Z,25.30
2019-04-30T20:22:19.642Z,21.47
2019-04-30T20:24:49.864Z,22.13
2019-04-30T20:27:19.109Z,22.67
2019-04-30T20:29:49.338Z,18.20
2019-04-30T20:32:27.473Z,17.30
2019-04-30T20:34:50.919Z,19.30
2019-04-30T20:37:20.125Z,22.03
2019-04-30T20:40:03.062Z,18.57
2019-04-30T20:42:32.519Z,16.27
2019-04-30T20:45:03.673Z,23.13
2019-04-30T20:47:32.822Z,21.30
2019-04-30T20:50:02.014Z,27.63
2019-04-30T20:52:32.365Z,23.10
2019-04-30T20:55:01.594Z,17.23
2019-04-30T20:57:30.812Z,20.63
2019-04-30T21:00:02.582Z,22.43
2019-04-30T21:02:31.560Z,20.83
2019-04-30T21:05:00.696Z,22.07
2019-04-30T21:07:29.876Z,20.33
2019-04-30T21:10:00.408Z,23.33
2019-04-30T21:12:29.740Z,19.87
2019-04-30T21:14:59.659Z,21.10
2019-04-30T21:17:28.871Z,24.53
2019-04-30T21:19:58.815Z,20.17
2019-04-30T21:22:29.628Z,22.37
2019-04-30T21:25:00.588Z,19.33
2019-04-30T21:27:30.505Z,18.33
2019-04-30T21:29:59.922Z,26.90
2019-04-30T21:32:48.648Z,27.57
2019-04-30T21:35:33.984Z,23.93
2019-04-30T21:38:03.171Z,29.73
2019-04-30T21:40:32.312Z,18.10
2019-04-30T21:43:02.766Z,22.27
2019-04-30T21:45:32.174Z,21.90
2019-04-30T21:48:03.139Z,18.80
2019-04-30T21:50:32.311Z,23.20
2019-04-30T21:53:01.430Z,21.70
2019-04-30T21:55:30.813Z,27.13
2019-04-30T21:58:00.164Z,24.77
2019-04-30T22:01:00.524Z,23.80
2019-04-30T22:03:32.648Z,24.70
2019-04-30T22:06:01.819Z,31.67
2019-04-30T22:08:30.997Z,25.77
2019-04-30T22:11:00.283Z,25.90
2019-04-30T22:13:29.575Z,25.23
2019-04-30T22:15:58.822Z,25.30
2019-04-30T22:18:28.019Z,27.33
2019-04-30T22:20:57.229Z,30.13
2019-04-30T22:23:26.421Z,25.10
2019-04-30T22:25:55.605Z,29.83
2019-04-30T22:28:24.787Z,30.87
2019-04-30T22:30:53.973Z,27.57
2019-04-30T22:33:23.179Z,30.33
2019-04-30T22:35:58.215Z,23.50
2019-04-30T22:38:30.817Z,32.63
2019-04-30T22:41:01.710Z,30.13
2019-04-30T22:43:30.880Z,27.43
2019-04-30T22:46:04.933Z,36.03
2019-04-30T22:48:34.119Z,31.93
2019-04-30T22:51:03.304Z,29.20
2019-04-30T22:53:32.424Z,31.50
2019-04-30T22:56:01.856Z,30.60
2019-04-30T22:58:31.045Z,31.37
2019-04-30T23:01:21.228Z,32.13
2019-04-30T23:03:52.636Z,30.70
2019-04-30T23:06:33.977Z,32.30
2019-04-30T23:09:07.070Z,27.87
2019-04-30T23:11:36.158Z,33.10
2019-04-30T23:14:05.384Z,29.07
2019-04-30T23:16:34.561Z,25.53
2019-04-30T23:19:03.853Z,28.17
2019-04-30T23:21:33.066Z,30.70
2019-04-30T23:24:02.238Z,29.13
2019-04-30T23:26:31.407Z,30.33
2019-04-30T23:29:00.340Z,31.37
2019-04-30T23:31:29.448Z,29.03
2019-04-30T23:33:58.629Z,31.77
2019-04-30T23:36:27.836Z,33.03
2019-04-30T23:38:57.068Z,29.47
2019-04-30T23:41:26.245Z,30.13
2019-04-30T23:43:55.433Z,24.63
2019-04-30T23:46:24.605Z,31.20
2019-04-30T23:48:53.925Z,28.23
2019-04-30T23:51:23.070Z,23.50
2019-04-30T23:53:52.259Z,30.30
2019-04-30T23:56:21.418Z,29.37
2019-04-30T23:58:50.612Z,26.37
